Pindobacu, Brazil
Current Conditions -  °F | °C
As of 10:00 AM on Monday 20 Oct 2014 (Local Time) from SBPL Reporting Station
Few Clouds Few Clouds  
Wind Chill: 90°   Ceiling: Unl
Heat Index: 92°   Visibility: 6mi
Dew Point: 66°   Wind: 12mph
Humidity: 46%   Direction: 120°ESE
Pressure: 29.97"   Gusts: NA
Location:  10.74°S, 40.36°W
Report Text: SBPL 201300Z 12010KT 9999 FEW023 32/19 Q1015
Loading
Personal Weather Stations






























Interactive Weather Map
Tropical Storm Tracking
New forecast layout! Learn more

10-Day Weather Forecast

Advertisements
Track Severe Weather on mobile